Time;durP1;ratioP1;P1;durP2;ratioP2;P2;SDS_P1;SDS_P2;PMS_P1;PMS_P2;Temp;Humidity;BMP_temperature;BMP_pressure;BME280_temperature;BME280_humidity;BME280_pressure;Samples;Min_cycle;Max_cycle;Signal;HPM_P1;HPM_P2
2022/10/31 00:01:18;;;;;;;18.75;16.85;;;22.70;99.90;;;;;;6223118;28;90689;-68
2022/10/31 00:04:20;;;;;;;18.23;16.33;;;22.80;99.90;;;;;;6223942;28;89118;-69
2022/10/31 00:07:22;;;;;;;17.95;16.08;;;22.70;99.90;;;;;;6229908;28;89102;-68
2022/10/31 00:10:24;;;;;;;18.10;16.30;;;22.70;99.90;;;;;;6217511;28;90007;-69
2022/10/31 00:13:27;;;;;;;18.63;16.73;;;22.70;99.90;;;;;;6229616;28;89299;-68
2022/10/31 00:16:30;;;;;;;17.75;15.98;;;22.70;99.90;;;;;;6205428;28;89030;-68
2022/10/31 00:19:32;;;;;;;17.63;15.82;;;22.70;99.90;;;;;;6228527;28;89294;-68
2022/10/31 00:22:34;;;;;;;18.05;16.25;;;22.80;99.90;;;;;;6222297;28;88470;-68
2022/10/31 00:25:38;;;;;;;18.83;16.92;;;22.70;99.90;;;;;;6207232;28;89126;-68
2022/10/31 00:28:41;;;;;;;17.35;15.65;;;22.70;99.90;;;;;;6222881;28;89084;-68
2022/10/31 00:31:43;;;;;;;18.65;16.75;;;22.70;99.90;;;;;;6216979;28;89932;-68
2022/10/31 00:34:45;;;;;;;17.98;16.08;;;22.70;99.90;;;;;;6230399;28;89101;-69
2022/10/31 00:37:47;;;;;;;17.35;15.65;;;22.70;99.90;;;;;;6215928;28;89015;-68
2022/10/31 00:40:49;;;;;;;18.23;16.33;;;22.70;99.90;;;;;;6220193;28;89390;-68
2022/10/31 00:43:52;;;;;;;18.30;16.42;;;22.70;99.90;;;;;;6217167;28;88027;-69
2022/10/31 00:46:54;;;;;;;18.90;16.92;;;22.70;99.90;;;;;;6217677;28;89018;-69
2022/10/31 00:49:56;;;;;;;17.33;15.57;;;22.70;99.90;;;;;;6217419;28;89158;-68
2022/10/31 00:52:58;;;;;;;18.33;16.42;;;22.70;99.90;;;;;;6215623;28;88314;-68
2022/10/31 00:56:00;;;;;;;17.15;15.45;;;22.70;99.90;;;;;;6219488;28;89055;-69
2022/10/31 00:59:04;;;;;;;18.17;16.27;;;22.70;99.90;;;;;;6218862;28;90313;-68
2022/10/31 01:02:06;;;;;;;17.10;15.40;;;22.70;99.90;;;;;;6204249;28;90027;-68
2022/10/31 01:05:08;;;;;;;16.75;15.02;;;22.70;99.90;;;;;;6217458;28;89141;-68
2022/10/31 01:08:10;;;;;;;17.65;15.88;;;22.70;99.90;;;;;;6206061;28;89201;-68
2022/10/31 01:11:15;;;;;;;17.83;16.05;;;22.60;99.90;;;;;;6231884;28;88998;-69
2022/10/31 01:14:18;;;;;;;17.90;16.10;;;22.60;99.90;;;;;;6224802;28;89487;-68
2022/10/31 01:17:20;;;;;;;18.45;16.65;;;22.60;99.90;;;;;;6220734;28;89104;-68
2022/10/31 01:20:22;;;;;;;17.55;15.75;;;22.60;99.90;;;;;;6217037;28;89074;-69
2022/10/31 01:23:24;;;;;;;17.65;15.85;;;22.70;99.90;;;;;;6226942;28;88361;-69
2022/10/31 01:26:28;;;;;;;17.35;15.52;;;22.70;99.90;;;;;;6219017;28;88622;-69
2022/10/31 01:29:32;;;;;;;16.58;14.88;;;22.70;99.90;;;;;;6208098;28;89172;-68
2022/10/31 01:32:34;;;;;;;17.90;16.10;;;22.60;99.90;;;;;;6228996;28;90048;-69
2022/10/31 01:35:36;;;;;;;17.77;16.00;;;22.60;99.90;;;;;;6230029;28;89096;-68
2022/10/31 01:38:38;;;;;;;17.48;15.70;;;22.60;99.90;;;;;;6215867;28;91025;-68
2022/10/31 01:41:43;;;;;;;17.50;15.77;;;22.60;99.90;;;;;;6228708;28;89008;-68
2022/10/31 01:45:01;;;;;;;17.48;15.77;;;22.60;99.90;;;;;;6228161;28;89203;-68
2022/10/31 01:48:03;;;;;;;17.17;15.38;;;22.60;99.90;;;;;;6228858;28;88099;-69
2022/10/31 01:51:05;;;;;;;17.55;15.80;;;22.60;99.90;;;;;;6217822;28;89183;-68
2022/10/31 01:54:12;;;;;;;17.25;15.48;;;22.60;99.90;;;;;;6204682;28;88327;-68
2022/10/31 01:57:16;;;;;;;16.85;15.15;;;22.60;99.90;;;;;;6214001;28;90026;-68
2022/10/31 02:00:21;;;;;;;17.30;15.60;;;22.60;99.90;;;;;;6226343;28;89021;-68
2022/10/31 02:03:24;;;;;;;17.42;15.63;;;22.60;99.90;;;;;;6217257;28;89998;-68
2022/10/31 02:06:34;;;;;;;17.38;15.60;;;22.60;99.90;;;;;;6213605;28;89186;-68
2022/10/31 02:09:38;;;;;;;17.77;16.00;;;22.60;99.90;;;;;;6219788;28;89018;-68
2022/10/31 02:12:42;;;;;;;17.20;15.45;;;22.60;99.90;;;;;;6225608;28;89032;-68
2022/10/31 02:15:48;;;;;;;17.52;15.80;;;22.60;99.90;;;;;;6227383;28;89062;-68
2022/10/31 02:18:50;;;;;;;17.30;15.57;;;22.50;99.90;;;;;;6228321;28;89051;-68
2022/10/31 02:21:58;;;;;;;16.98;15.18;;;22.60;99.90;;;;;;6221667;28;89009;-68
2022/10/31 02:25:20;;;;;;;17.17;15.38;;;22.50;99.90;;;;;;6222924;28;88492;-69
2022/10/31 02:28:49;;;;;;;16.52;14.82;;;22.50;99.90;;;;;;6229097;28;89024;-68
2022/10/31 02:31:59;;;;;;;17.00;15.30;;;22.50;99.90;;;;;;6217711;28;87929;-68
2022/10/31 02:35:10;;;;;;;16.83;15.13;;;22.60;99.90;;;;;;6224450;28;89932;-69
2022/10/31 02:38:34;;;;;;;17.88;16.08;;;22.60;99.90;;;;;;6221045;28;89141;-69
2022/10/31 02:41:46;;;;;;;17.65;15.85;;;22.50;99.90;;;;;;6231070;28;89266;-69
2022/10/31 02:45:01;;;;;;;18.40;16.45;;;22.60;99.90;;;;;;6216488;28;89969;-68
2022/10/31 02:48:10;;;;;;;17.42;15.60;;;22.50;99.90;;;;;;6222260;28;89090;-69
2022/10/31 02:51:13;;;;;;;17.45;15.68;;;22.50;99.90;;;;;;6228372;28;89108;-68
2022/10/31 02:54:24;;;;;;;16.67;14.98;;;22.50;99.90;;;;;;6232174;28;89223;-69
2022/10/31 02:57:29;;;;;;;17.20;15.50;;;22.50;99.90;;;;;;6232708;28;88336;-69
2022/10/31 03:00:38;;;;;;;16.77;15.07;;;22.50;99.90;;;;;;6220405;28;89060;-69
2022/10/31 03:03:52;;;;;;;17.27;15.52;;;22.50;99.90;;;;;;6224798;28;89099;-68
2022/10/31 03:07:01;;;;;;;16.83;15.13;;;22.50;99.90;;;;;;6214770;28;88941;-69
2022/10/31 03:10:08;;;;;;;17.65;15.82;;;22.50;99.90;;;;;;6231608;28;89043;-69
2022/10/31 03:13:15;;;;;;;17.10;15.38;;;22.50;99.90;;;;;;6224306;28;87922;-69
2022/10/31 03:16:26;;;;;;;16.73;14.93;;;22.50;99.90;;;;;;6218865;28;88165;-68
2022/10/31 03:19:33;;;;;;;16.67;14.98;;;22.50;99.90;;;;;;6225664;28;89362;-69
2022/10/31 03:22:38;;;;;;;16.10;14.48;;;22.50;99.90;;;;;;6221748;28;89092;-68
2022/10/31 03:25:41;;;;;;;16.90;15.20;;;22.50;99.90;;;;;;6229257;28;89095;-69
2022/10/31 03:28:50;;;;;;;17.17;15.45;;;22.50;99.90;;;;;;6228263;28;88395;-68
2022/10/31 03:31:56;;;;;;;17.02;15.35;;;22.50;99.90;;;;;;6231606;28;88941;-69
2022/10/31 03:35:02;;;;;;;16.35;14.75;;;22.50;99.90;;;;;;6226555;28;89237;-70
2022/10/31 03:38:06;;;;;;;17.38;15.63;;;22.50;99.90;;;;;;6209891;28;88885;-69
2022/10/31 03:41:13;;;;;;;17.10;15.30;;;22.50;99.90;;;;;;6231130;28;89482;-69
2022/10/31 03:44:18;;;;;;;15.98;14.27;;;22.50;99.90;;;;;;6209118;28;89057;-69
2022/10/31 03:47:21;;;;;;;16.30;14.70;;;22.40;99.90;;;;;;6227588;28;89056;-69
2022/10/31 03:50:28;;;;;;;16.33;14.60;;;22.40;99.90;;;;;;6221935;28;89062;-69
2022/10/31 03:53:37;;;;;;;16.10;14.55;;;22.40;99.90;;;;;;6230902;28;89136;-69
2022/10/31 03:56:44;;;;;;;15.70;14.13;;;22.40;99.90;;;;;;6217789;28;89085;-69
2022/10/31 03:59:52;;;;;;;16.85;15.15;;;22.40;99.90;;;;;;6227920;28;88465;-69
2022/10/31 04:03:02;;;;;;;15.95;14.35;;;22.40;99.90;;;;;;6220722;28;89367;-69
2022/10/31 04:06:09;;;;;;;16.05;14.50;;;22.40;99.90;;;;;;6217738;28;89054;-70
2022/10/31 04:09:12;;;;;;;16.25;14.60;;;22.40;99.90;;;;;;6231288;28;90309;-69
2022/10/31 04:12:16;;;;;;;15.80;14.27;;;22.40;99.90;;;;;;6206369;28;90442;-69
2022/10/31 04:15:20;;;;;;;15.40;13.90;;;22.40;99.90;;;;;;6230337;28;89074;-69
2022/10/31 04:18:24;;;;;;;15.57;14.02;;;22.40;99.90;;;;;;6217322;28;88111;-67
2022/10/31 04:21:30;;;;;;;14.82;13.43;;;22.40;99.90;;;;;;6228947;28;89033;-70
2022/10/31 04:24:32;;;;;;;15.20;13.70;;;22.40;99.90;;;;;;6229501;28;89006;-69
2022/10/31 04:27:34;;;;;;;15.27;13.50;;;22.40;99.90;;;;;;6230012;28;89865;-70
2022/10/31 04:30:36;;;;;;;15.60;14.00;;;22.40;99.90;;;;;;6229840;28;88748;-70
2022/10/31 04:33:38;;;;;;;14.70;13.23;;;22.40;99.90;;;;;;6217282;28;89099;-70
2022/10/31 04:36:42;;;;;;;15.00;13.50;;;22.40;99.90;;;;;;6218171;28;87824;-69
2022/10/31 04:39:44;;;;;;;14.43;13.02;;;22.40;99.90;;;;;;6204816;28;89870;-70
2022/10/31 04:42:46;;;;;;;14.70;13.20;;;22.40;99.90;;;;;;6226373;28;88981;-70
2022/10/31 04:45:48;;;;;;;13.70;12.40;;;22.40;99.90;;;;;;6218933;28;87858;-70
2022/10/31 04:48:50;;;;;;;13.98;12.68;;;22.40;99.90;;;;;;6215978;28;89116;-70
2022/10/31 04:51:53;;;;;;;13.98;12.57;;;22.40;99.90;;;;;;6229190;28;89094;-70
2022/10/31 04:54:55;;;;;;;13.93;12.63;;;22.40;99.90;;;;;;6217386;28;89147;-70
2022/10/31 04:57:57;;;;;;;13.98;12.57;;;22.40;99.90;;;;;;6229520;28;89090;-70
2022/10/31 05:00:59;;;;;;;13.63;12.32;;;22.40;99.90;;;;;;6229875;28;88362;-70
2022/10/31 05:04:01;;;;;;;13.32;12.02;;;22.40;99.90;;;;;;6214389;28;89128;-70
2022/10/31 05:07:05;;;;;;;14.02;12.52;;;22.50;99.90;;;;;;6215463;28;89235;-71
2022/10/31 05:10:09;;;;;;;13.40;12.10;;;22.40;99.90;;;;;;6205324;28;90299;-69
2022/10/31 05:13:11;;;;;;;13.15;11.75;;;22.50;99.90;;;;;;6205711;28;89159;-70
2022/10/31 05:16:13;;;;;;;13.40;12.00;;;22.50;99.90;;;;;;6211471;28;89099;-69
2022/10/31 05:19:15;;;;;;;12.93;11.73;;;22.50;99.90;;;;;;6213307;28;89089;-70
2022/10/31 05:22:19;;;;;;;12.85;11.55;;;22.50;99.90;;;;;;6225481;28;89067;-71
2022/10/31 05:25:22;;;;;;;13.35;11.93;;;22.50;99.90;;;;;;6226153;28;87931;-70
2022/10/31 05:28:24;;;;;;;12.75;11.55;;;22.50;99.90;;;;;;6223142;28;89095;-70
2022/10/31 05:31:26;;;;;;;12.25;11.05;;;22.50;99.90;;;;;;6225186;28;88752;-70
2022/10/31 05:34:28;;;;;;;12.70;11.50;;;22.50;99.90;;;;;;6222479;28;89049;-69
2022/10/31 05:37:31;;;;;;;12.93;11.63;;;22.50;99.90;;;;;;6208702;28;89109;-70
2022/10/31 05:40:33;;;;;;;12.10;10.90;;;22.50;99.90;;;;;;6229623;28;90026;-70
2022/10/31 05:43:35;;;;;;;12.32;11.13;;;22.50;99.90;;;;;;6233379;28;89162;-70
2022/10/31 05:46:37;;;;;;;12.35;11.15;;;22.60;99.90;;;;;;6228168;28;89092;-70
2022/10/31 05:49:40;;;;;;;11.93;10.82;;;22.60;99.90;;;;;;6208978;28;88294;-70
2022/10/31 05:52:43;;;;;;;11.75;10.65;;;22.60;99.90;;;;;;6211380;28;89103;-70
2022/10/31 05:55:45;;;;;;;12.77;11.48;;;22.60;99.90;;;;;;6218198;28;89147;-70
2022/10/31 05:58:47;;;;;;;11.80;10.65;;;22.60;99.90;;;;;;6221586;28;87903;-70
2022/10/31 06:01:49;;;;;;;12.13;10.98;;;22.60;99.90;;;;;;6209588;28;88330;-70
2022/10/31 06:04:51;;;;;;;11.63;10.52;;;22.60;99.90;;;;;;6231520;28;89050;-70
2022/10/31 06:07:54;;;;;;;11.32;10.23;;;22.60;99.90;;;;;;6223590;28;90194;-70
2022/10/31 06:10:56;;;;;;;11.90;10.70;;;22.60;99.90;;;;;;6219916;28;90110;-70
2022/10/31 06:13:58;;;;;;;10.82;9.82;;;22.60;99.90;;;;;;6226751;28;87955;-70
2022/10/31 06:17:00;;;;;;;11.25;10.15;;;22.60;99.90;;;;;;6233813;28;89064;-70
2022/10/31 06:20:03;;;;;;;11.63;10.43;;;22.60;99.90;;;;;;6217945;28;89032;-71
2022/10/31 06:23:07;;;;;;;11.55;10.35;;;22.60;99.90;;;;;;6228801;28;89382;-69
2022/10/31 06:26:09;;;;;;;11.48;10.27;;;22.60;99.90;;;;;;6220682;28;89090;-70
2022/10/31 06:29:11;;;;;;;11.00;9.90;;;22.60;99.90;;;;;;6233428;28;88989;-69
2022/10/31 06:32:13;;;;;;;11.00;10.00;;;22.60;99.90;;;;;;6234053;28;88342;-70
2022/10/31 06:35:16;;;;;;;10.68;9.68;;;22.60;99.90;;;;;;6232337;28;89084;-70
2022/10/31 06:38:19;;;;;;;11.05;9.95;;;22.60;99.90;;;;;;6226263;28;89032;-70
2022/10/31 06:41:21;;;;;;;10.70;9.70;;;22.70;99.90;;;;;;6222456;28;90079;-70
2022/10/31 06:44:23;;;;;;;11.35;10.20;;;22.60;99.90;;;;;;6219869;28;89140;-69
2022/10/31 06:47:25;;;;;;;10.27;9.27;;;22.70;99.90;;;;;;6208299;28;89022;-70
2022/10/31 06:50:27;;;;;;;10.93;9.82;;;22.70;99.90;;;;;;6231920;28;89083;-70
2022/10/31 06:53:30;;;;;;;10.15;9.15;;;22.60;99.90;;;;;;6231724;28;89065;-69
2022/10/31 06:56:33;;;;;;;10.60;9.60;;;22.60;99.90;;;;;;6212789;28;89125;-70
2022/10/31 06:59:35;;;;;;;10.63;9.63;;;22.60;99.90;;;;;;6214219;28;89167;-70
2022/10/31 07:02:37;;;;;;;10.30;9.30;;;22.60;99.90;;;;;;6233257;28;88470;-70
2022/10/31 07:05:39;;;;;;;9.48;8.57;;;22.70;99.90;;;;;;6229499;28;89104;-70
2022/10/31 07:08:42;;;;;;;10.02;9.13;;;22.70;99.90;;;;;;6222467;28;88002;-70
2022/10/31 07:11:44;;;;;;;9.93;9.02;;;22.70;99.90;;;;;;6231773;28;90289;-70
2022/10/31 07:14:46;;;;;;;10.18;9.18;;;22.70;99.90;;;;;;6232841;28;89555;-69
2022/10/31 07:17:48;;;;;;;9.68;8.77;;;22.70;99.90;;;;;;6231186;28;89174;-70
2022/10/31 07:20:50;;;;;;;10.00;9.00;;;22.70;99.90;;;;;;6216683;28;89031;-70
2022/10/31 07:23:54;;;;;;;9.88;8.98;;;22.70;99.90;;;;;;6232971;28;89054;-70
2022/10/31 07:26:56;;;;;;;9.30;8.40;;;22.70;99.90;;;;;;6225326;28;89142;-70
2022/10/31 07:29:58;;;;;;;9.07;8.27;;;22.70;99.90;;;;;;6213318;28;87931;-70
2022/10/31 07:33:00;;;;;;;9.30;8.43;;;22.70;99.90;;;;;;6232454;28;88406;-70
2022/10/31 07:36:02;;;;;;;9.35;8.45;;;22.70;99.90;;;;;;6229253;28;89213;-70
2022/10/31 07:39:05;;;;;;;9.65;8.75;;;22.70;99.90;;;;;;6207619;28;89159;-70
2022/10/31 07:42:08;;;;;;;8.77;7.97;;;22.70;99.90;;;;;;6223312;28;89986;-69
2022/10/31 07:45:12;;;;;;;9.02;8.13;;;22.70;99.90;;;;;;6225799;28;90592;-70
2022/10/31 07:48:14;;;;;;;9.30;8.40;;;22.70;99.90;;;;;;6212992;28;89117;-70
2022/10/31 07:51:16;;;;;;;8.77;7.97;;;22.70;99.90;;;;;;6214107;28;89120;-70
2022/10/31 07:54:20;;;;;;;8.90;8.00;;;22.70;99.90;;;;;;6209599;28;89027;-70
2022/10/31 07:57:22;;;;;;;9.15;8.25;;;22.70;99.90;;;;;;6216398;28;89087;-70
2022/10/31 08:00:24;;;;;;;8.80;8.00;;;22.70;99.90;;;;;;6220937;28;89498;-70
2022/10/31 08:03:26;;;;;;;8.95;8.05;;;22.70;99.90;;;;;;6231779;28;88363;-70
2022/10/31 08:06:28;;;;;;;8.68;7.88;;;22.70;99.90;;;;;;6230657;28;89448;-70
2022/10/31 08:09:31;;;;;;;8.13;7.43;;;22.70;99.90;;;;;;6231406;28;89122;-70
2022/10/31 08:12:33;;;;;;;8.63;7.75;;;22.80;99.90;;;;;;6229464;28;89980;-70
2022/10/31 08:15:38;;;;;;;8.05;7.28;;;22.80;99.90;;;;;;6227623;28;88920;-69
2022/10/31 08:18:40;;;;;;;7.75;7.05;;;22.80;99.90;;;;;;6231352;28;89087;-70
2022/10/31 08:21:42;;;;;;;8.30;7.50;;;22.80;99.90;;;;;;6229724;28;88287;-70
2022/10/31 08:24:45;;;;;;;8.73;7.82;;;22.80;99.90;;;;;;6216057;28;89094;-70
2022/10/31 08:27:50;;;;;;;8.57;7.65;;;22.70;99.90;;;;;;6219774;28;89102;-70
2022/10/31 08:30:52;;;;;;;7.68;6.95;;;22.80;99.90;;;;;;6206417;28;88006;-70
2022/10/31 08:33:54;;;;;;;7.53;6.82;;;22.80;99.90;;;;;;6219371;28;88669;-70
2022/10/31 08:36:56;;;;;;;7.80;7.10;;;22.80;99.90;;;;;;6206839;28;89052;-70
2022/10/31 08:39:59;;;;;;;7.75;7.05;;;22.80;99.90;;;;;;6215873;28;88933;-70
2022/10/31 08:43:04;;;;;;;8.00;7.20;;;22.80;99.90;;;;;;6224000;28;90029;-69
2022/10/31 08:46:06;;;;;;;7.85;7.07;;;22.80;99.90;;;;;;6217855;28;89244;-70
2022/10/31 08:49:08;;;;;;;7.80;7.00;;;22.80;99.90;;;;;;6231210;28;89022;-70
2022/10/31 08:52:10;;;;;;;7.45;6.75;;;22.80;99.90;;;;;;6218806;28;89116;-69
2022/10/31 08:55:14;;;;;;;7.72;7.03;;;22.90;99.90;;;;;;6217145;28;89037;-70
2022/10/31 08:58:18;;;;;;;7.57;6.88;;;22.80;99.90;;;;;;6230815;28;89079;-69
2022/10/31 09:01:20;;;;;;;7.15;6.53;;;22.80;99.90;;;;;;6230623;28;87945;-69
2022/10/31 09:04:22;;;;;;;7.80;7.10;;;22.80;99.90;;;;;;6217548;28;88378;-70
2022/10/31 09:07:24;;;;;;;7.40;6.70;;;22.80;99.90;;;;;;6225991;28;89073;-70
2022/10/31 09:10:29;;;;;;;7.53;6.82;;;22.80;99.90;;;;;;6219484;28;89036;-70
2022/10/31 09:13:31;;;;;;;7.25;6.55;;;22.80;99.90;;;;;;6217746;28;90087;-70
2022/10/31 09:16:33;;;;;;;6.88;6.22;;;22.80;99.90;;;;;;6216977;28;88252;-69
2022/10/31 09:19:36;;;;;;;6.65;6.05;;;22.80;99.90;;;;;;6229839;28;89112;-70
2022/10/31 09:22:38;;;;;;;6.95;6.25;;;22.80;99.90;;;;;;6222984;28;88934;-69
2022/10/31 09:25:42;;;;;;;6.80;6.20;;;22.80;99.90;;;;;;6219222;28;89323;-69
2022/10/31 09:28:44;;;;;;;6.85;6.25;;;22.80;99.90;;;;;;6228649;28;89065;-69
2022/10/31 09:31:46;;;;;;;6.90;6.25;;;22.80;99.90;;;;;;6222098;28;89232;-69
2022/10/31 09:34:48;;;;;;;6.75;6.15;;;22.80;99.90;;;;;;6225493;28;89699;-69
2022/10/31 09:37:55;;;;;;;6.88;6.28;;;22.80;99.90;;;;;;6229797;28;89088;-69
2022/10/31 09:41:08;;;;;;;6.82;6.13;;;22.90;99.90;;;;;;6220024;28;87937;-69
2022/10/31 09:44:19;;;;;;;6.72;6.13;;;22.80;99.90;;;;;;6229395;28;89188;-69
2022/10/31 09:47:32;;;;;;;6.20;5.70;;;22.80;99.90;;;;;;6230972;28;88990;-69
2022/10/31 09:50:40;;;;;;;6.35;5.75;;;22.80;99.90;;;;;;6230191;28;89110;-69
2022/10/31 09:53:46;;;;;;;6.60;6.00;;;22.80;99.90;;;;;;6205099;28;89086;-69
2022/10/31 09:56:51;;;;;;;6.43;5.82;;;22.90;99.90;;;;;;6228930;28;89031;-69
2022/10/31 09:59:53;;;;;;;6.50;5.90;;;22.90;99.90;;;;;;6229670;28;89648;-69
2022/10/31 10:03:00;;;;;;;6.82;6.22;;;22.80;99.90;;;;;;6222482;28;89193;-69
2022/10/31 10:06:12;;;;;;;6.50;5.90;;;22.90;99.90;;;;;;6218901;28;87221;-70
2022/10/31 10:09:14;;;;;;;6.82;6.15;;;22.80;99.90;;;;;;6206533;28;89153;-69
2022/10/31 10:12:34;;;;;;;6.43;5.82;;;22.80;99.90;;;;;;6210653;28;89357;-69
2022/10/31 10:15:55;;;;;;;6.22;5.65;;;22.80;99.90;;;;;;6229003;28;90333;-70
2022/10/31 10:19:12;;;;;;;6.00;5.45;;;22.90;99.90;;;;;;6217838;28;89262;-70
2022/10/31 10:22:21;;;;;;;6.63;5.68;;;22.90;99.90;;;;;;6225385;28;89152;-70
2022/10/31 10:25:25;;;;;;;6.47;5.88;;;22.90;99.90;;;;;;6216733;28;89718;-69
2022/10/31 10:28:37;;;;;;;5.95;5.45;;;22.80;99.90;;;;;;6218026;28;89155;-69
2022/10/31 10:31:45;;;;;;;5.78;5.28;;;22.90;99.90;;;;;;6232026;28;89602;-70
2022/10/31 10:34:51;;;;;;;5.90;5.40;;;22.90;99.90;;;;;;6228529;28;89172;-70
2022/10/31 10:37:59;;;;;;;6.07;5.50;;;22.90;99.90;;;;;;6223125;28;88311;-69
2022/10/31 10:41:05;;;;;;;6.10;5.53;;;22.90;99.90;;;;;;6223123;28;88971;-70
2022/10/31 10:44:11;;;;;;;5.63;5.13;;;22.90;99.90;;;;;;6221951;28;89095;-70
2022/10/31 10:50:37;;;;;;;5.32;4.93;;;22.90;99.90;;;;;;6222403;28;88292;-68
2022/10/31 10:54:01;;;;;;;5.80;5.22;;;22.90;99.90;;;;;;6222488;28;89113;-68
2022/10/31 10:57:12;;;;;;;5.78;5.28;;;23.00;99.90;;;;;;6221727;28;89101;-67
2022/10/31 11:00:21;;;;;;;5.80;5.30;;;22.90;99.90;;;;;;6208850;28;89115;-67
2022/10/31 11:03:23;;;;;;;5.55;5.05;;;23.00;99.90;;;;;;6232573;28;89078;-67
2022/10/31 11:06:26;;;;;;;5.40;4.90;;;22.90;99.90;;;;;;6222814;28;89455;-67
2022/10/31 11:09:28;;;;;;;5.18;4.75;;;23.00;99.90;;;;;;6215925;28;88450;-67
2022/10/31 11:12:33;;;;;;;5.60;5.10;;;22.90;99.90;;;;;;6232010;28;89216;-68
2022/10/31 11:15:49;;;;;;;5.80;5.30;;;23.00;99.90;;;;;;6219092;28;89263;-67
2022/10/31 11:18:51;;;;;;;5.78;5.28;;;22.90;99.90;;;;;;6230702;28;90093;-68
2022/10/31 11:21:54;;;;;;;5.57;5.00;;;23.00;99.90;;;;;;6230676;28;89301;-67
2022/10/31 11:24:56;;;;;;;5.30;4.80;;;23.00;99.90;;;;;;6231754;28;89115;-68
2022/10/31 11:28:02;;;;;;;5.85;5.25;;;23.00;99.90;;;;;;6219038;28;89314;-68
2022/10/31 11:31:13;;;;;;;5.90;5.22;;;23.00;99.90;;;;;;6218274;28;88032;-68
2022/10/31 11:34:23;;;;;;;5.93;5.38;;;23.00;99.90;;;;;;6231622;28;89159;-68
2022/10/31 11:37:28;;;;;;;5.20;4.72;;;23.00;99.90;;;;;;6231291;28;89295;-67
2022/10/31 11:40:30;;;;;;;5.30;4.80;;;23.00;99.90;;;;;;6220987;28;88283;-67
2022/10/31 11:43:32;;;;;;;5.00;4.60;;;23.00;99.90;;;;;;6227085;28;89260;-68
2022/10/31 11:46:39;;;;;;;4.90;4.50;;;23.00;99.90;;;;;;6213631;28;88054;-70
2022/10/31 11:49:43;;;;;;;5.40;4.93;;;23.00;99.90;;;;;;6223298;28;90107;-70
2022/10/31 11:52:45;;;;;;;5.28;4.78;;;23.00;99.90;;;;;;6232324;28;90257;-70
2022/10/31 11:55:48;;;;;;;4.90;4.40;;;23.00;99.90;;;;;;6232150;28;89242;-70
2022/10/31 11:58:57;;;;;;;4.97;4.57;;;23.00;99.90;;;;;;6233741;28;89469;-70
2022/10/31 12:02:02;;;;;;;5.15;4.65;;;23.00;99.90;;;;;;6233136;28;89518;-70
2022/10/31 12:05:09;;;;;;;5.00;4.60;;;23.00;99.90;;;;;;6231553;28;89053;-70
2022/10/31 12:08:12;;;;;;;4.90;4.50;;;23.00;99.90;;;;;;6221143;28;89186;-70
2022/10/31 12:11:33;;;;;;;5.35;4.85;;;23.00;99.90;;;;;;6221533;28;88600;-70
2022/10/31 12:14:50;;;;;;;4.88;4.47;;;23.00;99.90;;;;;;6220438;28;88026;-70
2022/10/31 12:18:01;;;;;;;4.75;4.35;;;23.00;99.90;;;;;;6221503;28;89368;-69
2022/10/31 12:21:15;;;;;;;4.60;4.20;;;23.00;99.90;;;;;;6214828;28;90089;-71
2022/10/31 12:24:35;;;;;;;5.00;4.50;;;23.00;99.90;;;;;;6224606;28;89404;-70
2022/10/31 12:27:58;;;;;;;4.80;4.40;;;23.00;99.90;;;;;;6218592;28;88027;-70
2022/10/31 12:31:13;;;;;;;4.97;4.57;;;23.00;99.90;;;;;;6226105;28;89198;-70
2022/10/31 12:34:41;;;;;;;5.07;4.57;;;23.00;99.90;;;;;;6218560;28;89049;-70
2022/10/31 12:37:54;;;;;;;5.20;4.70;;;23.00;99.90;;;;;;6226092;28;89283;-70
2022/10/31 12:41:13;;;;;;;5.05;4.55;;;23.00;99.90;;;;;;6228021;28;89081;-69
2022/10/31 12:44:31;;;;;;;4.97;4.47;;;23.00;99.90;;;;;;6219690;28;88314;-70
2022/10/31 12:47:59;;;;;;;4.88;4.43;;;23.00;99.90;;;;;;6205928;28;89991;-70
2022/10/31 12:51:13;;;;;;;5.13;4.63;;;23.00;99.90;;;;;;6220311;28;90743;-71
2022/10/31 12:54:37;;;;;;;5.57;4.90;;;23.00;99.90;;;;;;6217542;28;90697;-70
2022/10/31 12:57:43;;;;;;;4.93;4.53;;;23.00;99.90;;;;;;6217605;28;89268;-70
2022/10/31 13:00:49;;;;;;;5.03;4.57;;;23.00;99.90;;;;;;6228508;28;88008;-68
2022/10/31 13:03:58;;;;;;;5.53;4.63;;;23.00;99.90;;;;;;6220232;28;89163;-70
2022/10/31 13:07:07;;;;;;;5.70;5.13;;;23.10;99.90;;;;;;6205879;28;88068;-71
2022/10/31 13:10:19;;;;;;;5.47;4.95;;;23.00;99.90;;;;;;6219660;28;89078;-70
2022/10/31 13:13:27;;;;;;;5.28;4.60;;;23.00;99.90;;;;;;6219272;28;89170;-70
2022/10/31 13:16:36;;;;;;;4.88;4.38;;;23.00;99.90;;;;;;6220751;28;88438;-70
2022/10/31 13:19:42;;;;;;;5.00;4.60;;;23.00;99.90;;;;;;6207396;28;88033;-70
2022/10/31 13:22:47;;;;;;;5.00;4.20;;;23.00;99.90;;;;;;6228001;28;89330;-70
2022/10/31 13:25:54;;;;;;;5.30;4.80;;;23.00;99.90;;;;;;6205867;28;90128;-70
2022/10/31 13:29:05;;;;;;;4.57;4.18;;;23.00;99.90;;;;;;6230315;28;89120;-70
2022/10/31 13:32:09;;;;;;;4.88;4.47;;;23.00;99.90;;;;;;6230654;28;89264;-70
2022/10/31 13:35:19;;;;;;;4.90;4.50;;;23.00;99.90;;;;;;6229926;28;89198;-70
2022/10/31 13:38:30;;;;;;;4.72;4.32;;;23.00;99.90;;;;;;6220582;28;89740;-69
2022/10/31 13:41:50;;;;;;;4.80;4.30;;;23.00;99.90;;;;;;6226367;28;87982;-70
2022/10/31 13:44:53;;;;;;;4.70;4.30;;;23.00;99.90;;;;;;6230148;28;88036;-70
2022/10/31 13:48:00;;;;;;;4.95;4.38;;;23.00;99.90;;;;;;6230861;28;88290;-70
2022/10/31 13:51:06;;;;;;;5.20;4.70;;;23.00;99.90;;;;;;6214643;28;89305;-70
2022/10/31 13:54:23;;;;;;;4.57;4.18;;;23.00;99.90;;;;;;6219924;28;89201;-70
2022/10/31 13:57:32;;;;;;;5.60;4.78;;;23.00;99.90;;;;;;6226041;28;90217;-71
2022/10/31 14:00:36;;;;;;;4.90;4.38;;;23.00;99.90;;;;;;6218593;28;89245;-70
2022/10/31 14:03:39;;;;;;;4.65;4.25;;;23.00;99.90;;;;;;6234201;28;89790;-70
2022/10/31 14:06:54;;;;;;;4.53;4.13;;;23.00;99.90;;;;;;6233855;28;89284;-70
2022/10/31 14:10:01;;;;;;;4.32;3.92;;;23.00;99.90;;;;;;6232901;28;89601;-70
2022/10/31 14:13:09;;;;;;;4.75;4.32;;;23.00;99.90;;;;;;6233687;28;89235;-70
2022/10/31 14:16:21;;;;;;;4.22;3.83;;;23.00;99.90;;;;;;6232994;28;88209;-70
2022/10/31 14:19:23;;;;;;;4.82;4.30;;;23.00;99.90;;;;;;6224091;28;88525;-70
2022/10/31 14:22:31;;;;;;;4.68;4.28;;;23.00;99.90;;;;;;6230237;28;88830;-70
2022/10/31 14:25:36;;;;;;;4.90;4.50;;;23.00;99.90;;;;;;6220855;28;89279;-70
2022/10/31 14:28:38;;;;;;;4.57;4.13;;;23.10;99.90;;;;;;6231771;28;90265;-69
2022/10/31 14:31:43;;;;;;;4.50;4.10;;;23.10;99.90;;;;;;6232509;28;89255;-70
2022/10/31 14:34:54;;;;;;;4.45;4.05;;;23.00;99.90;;;;;;6233833;28;89340;-70
2022/10/31 14:38:27;;;;;;;4.38;3.97;;;23.00;99.90;;;;;;6215639;28;89283;-70
2022/10/31 14:41:54;;;;;;;4.47;4.07;;;23.00;99.90;;;;;;6219827;28;88274;-70
2022/10/31 14:45:13;;;;;;;4.53;4.13;;;23.00;99.90;;;;;;6215203;28;89637;-70
2022/10/31 14:48:35;;;;;;;4.68;4.28;;;23.00;99.90;;;;;;6228050;28;89189;-70
2022/10/31 14:51:40;;;;;;;4.40;4.00;;;23.00;99.90;;;;;;6220887;28;88915;-71
2022/10/31 14:54:49;;;;;;;4.55;4.15;;;23.00;99.90;;;;;;6232867;28;89534;-70
2022/10/31 14:57:57;;;;;;;4.50;4.10;;;23.00;99.90;;;;;;6232953;28;89259;-71
2022/10/31 15:00:59;;;;;;;4.55;4.15;;;23.00;99.90;;;;;;6227738;28;90098;-70
2022/10/31 15:04:05;;;;;;;4.82;4.38;;;23.00;99.90;;;;;;6221612;28;88760;-71
2022/10/31 15:07:12;;;;;;;4.78;4.22;;;23.00;99.90;;;;;;6222898;28;89317;-71
2022/10/31 15:10:22;;;;;;;4.90;4.40;;;23.00;99.90;;;;;;6232111;28;89230;-70
2022/10/31 15:13:25;;;;;;;4.75;4.25;;;23.00;99.90;;;;;;6230684;28;89056;-70
2022/10/31 15:16:35;;;;;;;4.57;4.00;;;23.00;99.90;;;;;;6232689;28;89146;-70
2022/10/31 15:19:37;;;;;;;4.65;4.25;;;23.00;99.90;;;;;;6221183;28;89106;-71
2022/10/31 15:22:39;;;;;;;4.85;4.45;;;23.00;99.90;;;;;;6231178;28;88343;-70
2022/10/31 15:25:42;;;;;;;4.43;4.03;;;23.00;99.90;;;;;;6222946;28;89145;-71
2022/10/31 15:28:46;;;;;;;4.47;4.07;;;23.00;99.90;;;;;;6230828;28;89164;-70
2022/10/31 15:31:51;;;;;;;4.40;4.00;;;23.00;99.90;;;;;;6232529;28;90558;-71
2022/10/31 15:34:55;;;;;;;4.88;4.30;;;23.00;99.90;;;;;;6232084;28;89171;-71
2022/10/31 15:37:58;;;;;;;4.30;3.90;;;23.00;99.90;;;;;;6218869;28;88923;-71
2022/10/31 15:41:04;;;;;;;4.50;4.10;;;23.00;99.90;;;;;;6231360;28;88999;-71
2022/10/31 15:44:16;;;;;;;4.80;4.40;;;23.00;99.90;;;;;;6232786;28;89894;-70
2022/10/31 15:47:21;;;;;;;4.43;4.03;;;23.00;99.90;;;;;;6232602;28;87679;-71
2022/10/31 15:50:28;;;;;;;4.18;3.78;;;23.00;99.90;;;;;;6218822;28;89191;-70
2022/10/31 15:53:36;;;;;;;4.10;3.75;;;23.00;99.90;;;;;;6219408;28;88431;-70
2022/10/31 15:56:38;;;;;;;4.47;4.07;;;22.90;99.90;;;;;;6218895;28;89127;-70
2022/10/31 15:59:46;;;;;;;5.15;4.60;;;23.00;99.90;;;;;;6231179;28;89086;-71